Time;durP1;ratioP1;P1;durP2;ratioP2;P2;SDS_P1;SDS_P2;PMS_P1;PMS_P2;Temp;Humidity;BMP_temperature;BMP_pressure;BME280_temperature;BME280_humidity;BME280_pressure;Samples;Min_cycle;Max_cycle;Signal;HPM_P1;HPM_P2
2022/08/21 00:02:27;;;;;;;7.40;5.77;;;18.60;99.90;;;;;;5128447;28;20390;-81
2022/08/21 00:05:12;;;;;;;6.40;5.07;;;18.60;99.90;;;;;;5129065;28;20398;-81
2022/08/21 00:07:57;;;;;;;6.93;6.20;;;18.60;99.90;;;;;;5128717;28;20490;-82
2022/08/21 00:10:43;;;;;;;6.47;5.60;;;18.50;99.90;;;;;;5128436;28;20480;-81
2022/08/21 00:13:28;;;;;;;6.70;5.40;;;18.30;99.90;;;;;;5116719;28;20392;-79
2022/08/21 00:16:12;;;;;;;7.03;5.93;;;18.40;99.90;;;;;;5137016;28;20387;-81
2022/08/21 00:18:57;;;;;;;13.33;7.40;;;18.60;99.90;;;;;;5137380;28;20379;-78
2022/08/21 00:21:42;;;;;;;7.70;6.13;;;18.50;99.90;;;;;;5131617;28;20383;-79
2022/08/21 00:24:27;;;;;;;8.87;5.23;;;18.60;99.90;;;;;;5126552;28;20433;-80
2022/08/21 00:27:12;;;;;;;5.23;4.73;;;18.60;99.90;;;;;;5111699;28;20399;-81
2022/08/21 00:29:56;;;;;;;5.20;4.43;;;18.70;99.90;;;;;;5126691;28;20433;-81
2022/08/21 00:32:43;;;;;;;4.83;4.33;;;18.70;99.90;;;;;;5111303;28;20380;-81
2022/08/21 00:35:32;;;;;;;5.70;5.20;;;18.40;99.90;;;;;;5127285;28;20517;-81
2022/08/21 00:38:16;;;;;;;5.53;4.20;;;18.50;99.90;;;;;;5127181;28;20380;-81
2022/08/21 00:41:04;;;;;;;4.40;4.00;;;18.60;99.90;;;;;;5111813;28;20462;-80
2022/08/21 00:43:49;;;;;;;5.83;4.40;;;18.50;99.90;;;;;;5127327;28;20497;-81
2022/08/21 00:46:34;;;;;;;5.90;5.27;;;18.40;99.90;;;;;;5126912;28;20391;-81
2022/08/21 00:49:18;;;;;;;5.03;4.53;;;18.40;99.90;;;;;;5127492;28;20404;-80
2022/08/21 00:52:04;;;;;;;5.10;4.60;;;18.40;99.90;;;;;;5127670;28;20806;-80
2022/08/21 00:54:50;;;;;;;4.67;4.20;;;18.30;99.90;;;;;;5127352;28;20380;-82
2022/08/21 00:57:42;;;;;;;5.40;4.90;;;18.00;99.90;;;;;;5127327;28;20431;-81
2022/08/21 01:00:33;;;;;;;5.47;4.97;;;17.80;99.90;;;;;;5127198;28;20384;-81
2022/08/21 01:03:22;;;;;;;6.00;5.43;;;17.80;99.90;;;;;;5126828;28;21001;-81
2022/08/21 01:06:08;;;;;;;5.27;4.10;;;18.00;99.90;;;;;;5127518;28;20743;-80
2022/08/21 01:08:53;;;;;;;5.27;4.80;;;18.00;99.90;;;;;;5127138;28;20387;-79
2022/08/21 01:11:37;;;;;;;6.40;4.80;;;18.10;99.90;;;;;;5127443;28;20473;-82
2022/08/21 01:14:22;;;;;;;5.30;4.60;;;18.20;99.90;;;;;;5127347;28;20468;-81
2022/08/21 01:17:08;;;;;;;7.23;5.93;;;18.00;99.90;;;;;;5128070;28;20394;-81
2022/08/21 01:19:57;;;;;;;7.17;5.03;;;17.90;99.90;;;;;;5127549;28;20491;-81
2022/08/21 01:22:42;;;;;;;5.40;4.60;;;17.90;99.90;;;;;;5127199;28;20422;-81
2022/08/21 01:25:26;;;;;;;6.00;4.70;;;18.10;99.90;;;;;;5127370;28;20459;-81
2022/08/21 01:28:14;;;;;;;5.03;4.57;;;18.20;99.90;;;;;;5127127;28;20380;-81
2022/08/21 01:31:01;;;;;;;5.00;4.47;;;18.30;99.90;;;;;;5127139;28;20497;-81
2022/08/21 01:33:45;;;;;;;5.60;4.77;;;18.30;99.90;;;;;;5134424;28;20378;-81
2022/08/21 01:36:30;;;;;;;7.13;5.37;;;18.20;99.90;;;;;;5136246;28;20410;-78
2022/08/21 01:39:15;;;;;;;5.60;5.00;;;17.80;99.90;;;;;;5124995;28;20784;-81
2022/08/21 01:41:59;;;;;;;5.83;5.10;;;17.60;99.90;;;;;;5127832;28;20391;-80
2022/08/21 01:44:43;;;;;;;5.40;4.70;;;17.50;99.90;;;;;;5123965;28;20799;-79
2022/08/21 01:47:28;;;;;;;7.30;5.30;;;17.60;99.90;;;;;;5124826;28;20734;-81
2022/08/21 01:50:15;;;;;;;6.80;5.13;;;17.80;99.90;;;;;;5122790;28;20879;-79
2022/08/21 01:53:00;;;;;;;6.40;5.20;;;17.60;99.90;;;;;;5123534;28;20445;-81
2022/08/21 01:55:44;;;;;;;6.67;6.03;;;17.70;99.90;;;;;;5124024;28;20387;-79
2022/08/21 01:58:29;;;;;;;6.57;5.90;;;17.80;99.90;;;;;;5123351;28;20797;-81
2022/08/21 02:01:14;;;;;;;8.77;5.93;;;17.90;99.90;;;;;;5124169;28;20428;-81
2022/08/21 02:03:59;;;;;;;7.13;5.73;;;18.10;99.90;;;;;;5123189;28;20440;-80
2022/08/21 02:06:43;;;;;;;7.10;5.57;;;18.20;99.90;;;;;;5123668;28;20384;-79
2022/08/21 02:09:28;;;;;;;6.43;5.83;;;18.10;99.90;;;;;;5123906;28;20390;-80
2022/08/21 02:12:14;;;;;;;6.70;4.93;;;18.20;99.90;;;;;;5123665;28;20499;-80
2022/08/21 02:14:58;;;;;;;5.90;5.30;;;18.30;99.90;;;;;;5123343;28;20402;-79
2022/08/21 02:17:46;;;;;;;6.73;5.80;;;18.30;99.90;;;;;;5123342;28;20502;-80
2022/08/21 02:20:34;;;;;;;6.10;5.50;;;18.30;99.90;;;;;;5123092;28;20452;-80
2022/08/21 02:23:18;;;;;;;5.53;5.03;;;18.20;99.90;;;;;;5122668;28;20406;-79
2022/08/21 02:26:07;;;;;;;7.73;5.10;;;18.10;99.90;;;;;;5123947;28;20390;-79
2022/08/21 02:28:52;;;;;;;8.10;4.70;;;18.10;99.90;;;;;;5123191;28;20475;-81
2022/08/21 02:31:36;;;;;;;5.73;5.20;;;17.90;99.90;;;;;;5123480;28;20537;-81
2022/08/21 02:34:21;;;;;;;6.20;5.60;;;17.90;99.90;;;;;;5122775;28;20386;-79
2022/08/21 02:37:06;;;;;;;6.00;5.40;;;18.00;99.90;;;;;;5108144;28;20394;-82
2022/08/21 02:39:50;;;;;;;5.67;5.07;;;18.00;99.90;;;;;;5123166;28;20744;-79
2022/08/21 02:42:35;;;;;;;6.80;6.07;;;18.00;99.90;;;;;;5123935;28;20784;-81
2022/08/21 02:45:20;;;;;;;11.43;5.53;;;18.00;99.90;;;;;;5093800;28;20464;-79
2022/08/21 02:48:07;;;;;;;12.97;5.90;;;18.10;99.90;;;;;;5123705;28;20387;-79
2022/08/21 02:50:56;;;;;;;7.27;6.07;;;18.20;99.90;;;;;;5122954;28;20922;-79
2022/08/21 02:53:41;;;;;;;8.77;6.43;;;18.30;99.90;;;;;;5123070;28;20467;-81
2022/08/21 02:56:26;;;;;;;10.53;5.90;;;18.30;99.90;;;;;;5123455;28;20498;-79
2022/08/21 02:59:11;;;;;;;9.10;5.40;;;18.30;99.90;;;;;;5122446;28;20475;-79
2022/08/21 03:01:55;;;;;;;6.70;6.03;;;18.20;99.90;;;;;;5122522;28;20391;-81
2022/08/21 03:04:40;;;;;;;17.33;5.90;;;18.10;99.90;;;;;;5127121;28;20402;-81
2022/08/21 03:07:25;;;;;;;13.90;6.13;;;18.10;99.90;;;;;;5127889;28;20383;-80
2022/08/21 03:10:10;;;;;;;10.17;6.33;;;18.10;99.90;;;;;;5128240;28;20452;-81
2022/08/21 03:12:55;;;;;;;11.47;6.80;;;18.20;99.90;;;;;;5127343;28;20399;-80
2022/08/21 03:15:40;;;;;;;6.73;6.07;;;18.20;99.90;;;;;;5110727;28;20391;-79
2022/08/21 03:18:24;;;;;;;11.73;5.30;;;18.20;99.90;;;;;;5126836;28;20407;-80
2022/08/21 03:21:10;;;;;;;6.70;6.00;;;18.20;99.90;;;;;;5125652;28;20406;-80
2022/08/21 03:23:55;;;;;;;8.10;6.87;;;18.10;99.90;;;;;;5126082;28;20378;-80
2022/08/21 03:26:40;;;;;;;11.50;5.93;;;17.90;99.90;;;;;;5139774;28;20480;-79
2022/08/21 03:29:25;;;;;;;8.07;6.83;;;17.80;99.90;;;;;;5123401;28;20395;-81
2022/08/21 03:32:10;;;;;;;7.57;5.90;;;17.90;99.90;;;;;;5113529;28;20457;-81
2022/08/21 03:34:54;;;;;;;9.23;7.47;;;18.00;99.90;;;;;;5114481;28;20422;-81
2022/08/21 03:37:39;;;;;;;7.53;6.57;;;18.10;99.90;;;;;;5129115;28;20755;-81
2022/08/21 03:40:24;;;;;;;9.43;6.40;;;18.20;99.90;;;;;;5113471;28;20384;-81
2022/08/21 03:43:09;;;;;;;9.70;5.67;;;18.20;99.90;;;;;;5129528;28;20940;-81
2022/08/21 03:45:54;;;;;;;7.37;6.60;;;18.20;99.90;;;;;;5127533;28;20509;-80
2022/08/21 03:48:39;;;;;;;10.53;5.90;;;18.20;99.90;;;;;;5127949;28;20434;-81
2022/08/21 03:51:24;;;;;;;10.63;7.37;;;18.30;99.90;;;;;;5145749;27;20462;-79
2022/08/21 03:54:08;;;;;;;9.53;6.00;;;18.20;99.90;;;;;;5108288;28;20388;-81
2022/08/21 03:56:52;;;;;;;15.00;6.47;;;18.20;99.90;;;;;;5108343;28;20503;-80
2022/08/21 03:59:38;;;;;;;13.43;6.00;;;17.90;99.90;;;;;;5109968;28;20460;-80
2022/08/21 04:02:23;;;;;;;9.67;7.73;;;17.80;99.90;;;;;;5127968;28;20387;-79
2022/08/21 04:05:09;;;;;;;6.37;5.70;;;17.90;99.90;;;;;;5127791;28;20413;-81
2022/08/21 04:07:56;;;;;;;10.83;6.20;;;18.00;99.90;;;;;;5127690;28;20391;-80
2022/08/21 04:10:43;;;;;;;6.90;6.27;;;18.10;99.90;;;;;;5127451;28;20474;-81
2022/08/21 04:13:28;;;;;;;11.40;6.13;;;18.10;99.90;;;;;;5126582;28;20380;-81
2022/08/21 04:16:13;;;;;;;19.40;6.90;;;17.80;99.90;;;;;;5127085;28;20440;-81
2022/08/21 04:18:58;;;;;;;12.27;6.13;;;17.50;99.90;;;;;;5126718;28;20401;-80
2022/08/21 04:21:42;;;;;;;8.20;6.33;;;17.40;99.90;;;;;;5126898;28;20720;-79
2022/08/21 04:24:27;;;;;;;11.23;6.77;;;17.20;99.90;;;;;;5126823;28;20863;-81
2022/08/21 04:27:11;;;;;;;7.37;5.83;;;17.10;99.90;;;;;;5127617;28;20470;-80
2022/08/21 04:29:55;;;;;;;16.50;6.83;;;17.00;99.90;;;;;;5127511;28;20410;-81
2022/08/21 04:32:43;;;;;;;7.30;6.20;;;16.90;99.90;;;;;;5128050;28;20457;-81
2022/08/21 04:35:28;;;;;;;9.43;6.80;;;17.00;99.90;;;;;;5127192;28;20411;-80
2022/08/21 04:38:12;;;;;;;15.87;7.13;;;17.00;99.90;;;;;;5127101;28;20395;-80
2022/08/21 04:40:57;;;;;;;12.43;7.80;;;17.10;99.90;;;;;;5127383;28;20379;-80
2022/08/21 04:43:42;;;;;;;11.80;6.87;;;16.90;99.90;;;;;;5126954;28;20521;-81
2022/08/21 04:46:28;;;;;;;10.77;7.60;;;17.00;99.90;;;;;;5127296;28;20387;-80
2022/08/21 04:49:13;;;;;;;9.70;6.73;;;17.10;99.90;;;;;;5127761;28;20425;-80
2022/08/21 04:51:57;;;;;;;7.70;6.90;;;17.30;99.90;;;;;;5126943;28;20584;-81
2022/08/21 04:54:44;;;;;;;10.60;7.67;;;17.50;99.90;;;;;;5127835;28;20387;-80
2022/08/21 04:57:29;;;;;;;8.80;6.03;;;17.70;99.90;;;;;;5127491;28;20468;-81
2022/08/21 05:00:14;;;;;;;19.93;7.60;;;17.80;99.90;;;;;;5128425;28;20387;-80
2022/08/21 05:03:00;;;;;;;13.73;6.80;;;17.80;99.90;;;;;;5127418;28;20380;-80
2022/08/21 05:05:45;;;;;;;7.00;6.30;;;17.80;99.90;;;;;;5127603;28;20956;-80
2022/08/21 05:08:30;;;;;;;8.87;6.70;;;17.80;99.90;;;;;;5127511;28;20375;-81
2022/08/21 05:11:14;;;;;;;9.40;6.87;;;17.80;99.90;;;;;;5127513;28;20442;-81
2022/08/21 05:13:59;;;;;;;7.40;4.83;;;17.90;99.90;;;;;;5133308;28;20402;-80
2022/08/21 05:16:43;;;;;;;7.43;5.97;;;17.80;99.90;;;;;;5135543;28;20406;-78
2022/08/21 05:19:29;;;;;;;6.23;5.33;;;17.80;99.90;;;;;;5136011;28;20374;-80
2022/08/21 05:22:20;;;;;;;8.57;5.00;;;17.80;99.90;;;;;;5134269;28;20429;-81
2022/08/21 05:25:06;;;;;;;7.17;6.00;;;17.90;99.90;;;;;;5125990;28;20391;-80
2022/08/21 05:27:50;;;;;;;9.00;6.30;;;17.80;99.90;;;;;;5126646;28;20379;-81
2022/08/21 05:30:36;;;;;;;9.70;6.30;;;17.80;99.90;;;;;;5111282;28;20478;-80
2022/08/21 05:33:21;;;;;;;9.90;6.27;;;17.80;99.90;;;;;;5126146;28;20891;-81
2022/08/21 05:36:06;;;;;;;5.37;4.87;;;17.80;99.90;;;;;;5125671;28;20379;-79
2022/08/21 05:39:11;;;;;;;6.20;5.60;;;17.90;99.90;;;;;;5130870;28;20410;-78
2022/08/21 05:41:56;;;;;;;6.03;5.30;;;17.80;99.90;;;;;;5084147;28;20408;-78
2022/08/21 05:44:40;;;;;;;6.60;6.00;;;17.50;99.90;;;;;;5090071;28;20474;-77
2022/08/21 05:47:25;;;;;;;6.20;5.63;;;17.50;99.90;;;;;;5090910;28;20532;-78
2022/08/21 05:50:09;;;;;;;7.57;5.20;;;17.40;99.90;;;;;;5090414;28;20440;-77
2022/08/21 05:52:54;;;;;;;6.20;5.60;;;17.50;99.90;;;;;;5090670;28;20397;-77
2022/08/21 05:55:39;;;;;;;15.03;6.23;;;17.40;99.90;;;;;;5089641;28;20413;-78
2022/08/21 05:58:25;;;;;;;8.90;5.63;;;17.40;99.90;;;;;;5090678;28;20484;-78
2022/08/21 06:01:10;;;;;;;5.93;5.33;;;17.20;99.90;;;;;;5090043;28;20444;-81
2022/08/21 06:03:55;;;;;;;9.20;6.87;;;17.50;99.90;;;;;;5087951;28;20408;-81
2022/08/21 06:06:40;;;;;;;5.93;5.37;;;17.80;99.90;;;;;;5087467;28;20408;-81
2022/08/21 06:09:24;;;;;;;5.60;5.10;;;17.70;99.90;;;;;;5084759;28;20443;-81
2022/08/21 06:12:11;;;;;;;5.20;4.70;;;17.30;99.90;;;;;;5084560;28;20452;-80
2022/08/21 06:14:56;;;;;;;6.77;5.90;;;17.10;99.90;;;;;;5084198;28;20793;-81
2022/08/21 06:17:40;;;;;;;8.10;7.30;;;17.20;99.90;;;;;;5083833;28;20793;-81
2022/08/21 06:20:26;;;;;;;7.50;6.43;;;17.40;99.90;;;;;;5084049;28;20470;-81
2022/08/21 06:23:10;;;;;;;7.90;7.20;;;17.50;99.90;;;;;;5083935;28;20853;-81
2022/08/21 06:25:55;;;;;;;6.90;6.27;;;17.60;99.90;;;;;;5103172;28;20410;-80
2022/08/21 06:28:41;;;;;;;6.47;5.77;;;17.70;99.90;;;;;;5125923;28;20444;-81
2022/08/21 06:31:27;;;;;;;7.13;6.43;;;18.00;99.90;;;;;;5125007;28;20446;-81
2022/08/21 06:34:12;;;;;;;7.07;6.37;;;18.00;99.90;;;;;;5125961;28;20415;-82
2022/08/21 06:36:57;;;;;;;6.60;6.00;;;18.10;99.90;;;;;;5117389;28;20409;-81
2022/08/21 06:39:41;;;;;;;6.97;6.03;;;18.00;99.90;;;;;;5140005;28;20382;-81
2022/08/21 06:42:27;;;;;;;6.70;4.97;;;18.10;99.90;;;;;;5139020;28;20406;-81
2022/08/21 06:45:11;;;;;;;6.00;5.10;;;18.20;99.90;;;;;;5137031;28;20501;-81
2022/08/21 06:47:55;;;;;;;7.23;5.50;;;18.10;99.90;;;;;;5130424;28;20472;-81
2022/08/21 06:50:40;;;;;;;8.40;7.60;;;18.20;99.90;;;;;;5130364;28;20443;-82
2022/08/21 06:53:24;;;;;;;6.97;6.27;;;18.30;99.90;;;;;;5129423;28;20424;-80
2022/08/21 06:56:09;;;;;;;6.37;5.77;;;18.30;99.90;;;;;;5128861;28;20421;-82
2022/08/21 06:58:53;;;;;;;7.50;6.80;;;17.90;99.90;;;;;;5129670;28;20384;-82
2022/08/21 07:01:39;;;;;;;8.07;7.27;;;17.40;99.90;;;;;;5128778;28;20391;-81
2022/08/21 07:04:23;;;;;;;6.43;5.93;;;17.40;99.90;;;;;;5129007;28;20379;-81
2022/08/21 07:07:07;;;;;;;9.37;6.77;;;17.60;99.90;;;;;;5129068;28;20391;-81
2022/08/21 07:09:52;;;;;;;7.97;7.17;;;18.00;99.90;;;;;;5129457;28;20443;-81
2022/08/21 07:12:37;;;;;;;7.43;6.70;;;18.20;99.90;;;;;;5129217;28;20864;-81
2022/08/21 07:15:21;;;;;;;7.17;6.57;;;18.40;99.90;;;;;;5128263;28;20866;-82
2022/08/21 07:18:07;;;;;;;10.20;7.93;;;18.20;99.90;;;;;;5129241;28;20375;-81
2022/08/21 07:20:51;;;;;;;7.40;6.70;;;17.80;99.90;;;;;;5134812;28;20450;-80
2022/08/21 07:23:41;;;;;;;8.77;6.67;;;18.00;99.90;;;;;;5132214;28;20394;-81
2022/08/21 07:26:26;;;;;;;8.80;7.60;;;17.70;99.90;;;;;;5129340;28;20429;-81
2022/08/21 07:29:10;;;;;;;6.73;6.03;;;17.60;99.90;;;;;;5128844;28;20390;-82
2022/08/21 07:31:54;;;;;;;9.27;7.13;;;17.70;99.90;;;;;;5129042;28;20967;-81
2022/08/21 07:34:39;;;;;;;7.13;6.43;;;17.70;99.90;;;;;;5128557;28;20391;-81
2022/08/21 07:37:24;;;;;;;10.47;7.70;;;17.90;99.90;;;;;;5128812;28;20456;-80
2022/08/21 07:40:08;;;;;;;8.97;7.60;;;18.00;99.90;;;;;;5127765;28;20394;-80
2022/08/21 07:42:53;;;;;;;10.43;8.60;;;18.00;99.90;;;;;;5127768;28;20705;-80
2022/08/21 07:45:38;;;;;;;7.90;6.90;;;18.10;99.90;;;;;;5127526;28;20508;-81
2022/08/21 07:48:23;;;;;;;8.30;7.00;;;18.30;99.90;;;;;;5126711;28;20380;-80
2022/08/21 07:51:09;;;;;;;8.17;6.43;;;18.60;99.90;;;;;;5127456;28;20519;-81
2022/08/21 07:53:56;;;;;;;7.53;6.77;;;18.70;99.90;;;;;;5127523;28;20403;-80
2022/08/21 07:56:41;;;;;;;9.03;7.57;;;18.90;99.90;;;;;;5127164;28;20589;-82
2022/08/21 07:59:25;;;;;;;7.67;6.57;;;18.90;99.90;;;;;;5127244;28;20421;-82
2022/08/21 08:02:20;;;;;;;10.47;7.97;;;19.00;99.90;;;;;;5127351;28;20827;-82
2022/08/21 08:05:08;;;;;;;8.23;7.33;;;19.00;99.90;;;;;;5127431;28;20400;-80
2022/08/21 08:07:52;;;;;;;8.80;7.80;;;19.00;99.90;;;;;;5127625;28;20387;-82
2022/08/21 08:10:38;;;;;;;10.03;9.13;;;19.00;99.90;;;;;;5126703;28;20518;-82
2022/08/21 08:13:22;;;;;;;10.37;9.00;;;19.00;99.90;;;;;;5127091;28;20401;-81
2022/08/21 08:16:07;;;;;;;10.20;8.93;;;19.10;99.90;;;;;;5097338;28;20375;-81
2022/08/21 08:18:51;;;;;;;8.17;7.37;;;19.10;99.90;;;;;;5126620;28;20427;-82
2022/08/21 08:21:37;;;;;;;9.50;8.50;;;18.80;99.90;;;;;;5125616;28;20471;-80
2022/08/21 08:24:22;;;;;;;9.80;8.60;;;18.60;99.90;;;;;;5127464;28;20415;-82
2022/08/21 08:27:06;;;;;;;9.60;8.60;;;18.50;99.90;;;;;;5127052;28;20383;-82
2022/08/21 08:29:50;;;;;;;10.30;9.30;;;18.60;99.90;;;;;;5126773;28;20395;-82
2022/08/21 08:32:36;;;;;;;9.97;8.23;;;18.70;99.90;;;;;;5127496;28;20456;-81
2022/08/21 08:35:21;;;;;;;12.00;9.10;;;18.70;99.90;;;;;;5127100;28;20410;-82
2022/08/21 08:38:06;;;;;;;9.00;8.07;;;18.70;99.90;;;;;;5112581;28;20390;-82
2022/08/21 08:41:04;;;;;;;10.80;9.60;;;18.80;99.90;;;;;;5126739;28;20411;-82
2022/08/21 08:43:52;;;;;;;12.13;10.10;;;19.10;99.90;;;;;;5127962;28;20446;-81
2022/08/21 08:46:44;;;;;;;11.70;10.50;;;18.90;99.90;;;;;;5127672;28;20475;-81
2022/08/21 08:49:37;;;;;;;8.30;7.33;;;18.80;99.90;;;;;;5130407;28;20401;-81
2022/08/21 08:52:30;;;;;;;11.50;10.10;;;19.30;99.90;;;;;;5130797;28;20466;-80
2022/08/21 08:55:23;;;;;;;13.53;10.93;;;19.10;99.90;;;;;;5132616;28;20464;-80
2022/08/21 08:58:16;;;;;;;11.30;9.60;;;19.00;99.90;;;;;;5115907;28;20417;-81
2022/08/21 09:01:05;;;;;;;13.40;9.50;;;18.80;99.90;;;;;;5128869;28;20767;-81
2022/08/21 09:03:51;;;;;;;12.83;10.00;;;18.70;99.90;;;;;;5130892;28;20445;-82
2022/08/21 09:06:57;;;;;;;12.47;9.30;;;18.60;99.90;;;;;;5129646;28;20398;-80
2022/08/21 09:10:16;;;;;;;14.23;10.30;;;18.70;99.90;;;;;;5112674;28;20391;-82
2022/08/21 09:13:26;;;;;;;11.33;10.13;;;18.90;99.90;;;;;;5130142;28;20399;-81
2022/08/21 09:16:37;;;;;;;10.93;9.70;;;19.00;99.90;;;;;;5114342;28;20388;-81
2022/08/21 09:19:41;;;;;;;11.83;10.47;;;19.40;99.90;;;;;;5128531;28;20399;-82
2022/08/21 09:22:48;;;;;;;10.83;9.63;;;19.60;99.90;;;;;;5129492;28;20467;-80
2022/08/21 09:25:42;;;;;;;10.67;9.57;;;19.80;99.90;;;;;;5126889;28;20375;-82
2022/08/21 09:28:33;;;;;;;14.10;12.73;;;20.30;99.90;;;;;;5095216;28;20383;-81
2022/08/21 09:31:37;;;;;;;10.70;9.60;;;20.00;99.90;;;;;;5124076;28;20534;-80
2022/08/21 09:34:28;;;;;;;10.80;9.80;;;19.70;99.90;;;;;;5124424;28;20432;-81
2022/08/21 09:37:18;;;;;;;11.53;9.97;;;19.90;99.90;;;;;;5123634;28;20456;-81
2022/08/21 09:40:34;;;;;;;9.90;9.00;;;20.80;99.90;;;;;;5123251;28;20399;-81
2022/08/21 09:43:21;;;;;;;10.80;9.60;;;21.10;99.90;;;;;;5123606;28;20411;-80
2022/08/21 09:46:19;;;;;;;10.63;9.63;;;20.20;99.90;;;;;;5124396;28;20845;-81
2022/08/21 09:49:04;;;;;;;11.90;10.80;;;20.40;99.90;;;;;;5123809;28;20458;-80
2022/08/21 09:51:54;;;;;;;11.47;10.23;;;20.50;99.90;;;;;;5122343;28;20461;-83
2022/08/21 09:54:40;;;;;;;10.80;9.70;;;20.80;99.90;;;;;;5080028;28;20486;-82
2022/08/21 10:00:30;;;;;;;10.33;9.20;;;20.90;99.90;;;;;;5079609;28;20413;-81
2022/08/21 10:03:19;;;;;;;13.63;10.27;;;21.00;99.90;;;;;;5080502;28;20405;-80
2022/08/21 10:06:09;;;;;;;12.73;10.33;;;21.40;99.90;;;;;;5075735;28;20381;-82
2022/08/21 10:09:08;;;;;;;9.37;8.50;;;21.50;99.90;;;;;;5066800;28;20414;-81
2022/08/21 10:12:23;;;;;;;11.70;9.63;;;21.80;99.90;;;;;;5082594;28;20440;-81
2022/08/21 10:15:39;;;;;;;11.50;10.40;;;21.70;99.90;;;;;;5085421;28;20413;-81
2022/08/21 10:18:34;;;;;;;11.07;9.80;;;21.90;99.90;;;;;;5083608;28;20491;-83
2022/08/21 10:21:33;;;;;;;9.30;8.43;;;21.70;99.90;;;;;;5083607;28;20401;-82
2022/08/21 10:24:32;;;;;;;9.70;8.83;;;21.70;99.90;;;;;;5073869;28;20902;-80
2022/08/21 10:27:44;;;;;;;7.93;6.97;;;22.40;99.90;;;;;;5127149;28;20406;-81
2022/08/21 10:30:48;;;;;;;11.93;8.67;;;22.20;99.90;;;;;;5128282;28;20390;-81
2022/08/21 10:33:53;;;;;;;10.60;9.60;;;22.30;99.90;;;;;;5127658;28;20379;-81
2022/08/21 10:37:07;;;;;;;9.50;7.40;;;22.80;99.90;;;;;;5125510;28;20479;-82
2022/08/21 10:40:15;;;;;;;10.17;7.87;;;22.10;99.90;;;;;;5125398;28;20528;-81
2022/08/21 10:43:24;;;;;;;10.37;8.40;;;22.40;99.90;;;;;;5106269;28;20914;-83
2022/08/21 10:46:30;;;;;;;8.83;7.93;;;22.80;99.90;;;;;;5087663;28;20387;-80
2022/08/21 10:49:39;;;;;;;8.40;7.00;;;23.40;99.90;;;;;;5111543;28;20475;-80
2022/08/21 10:52:48;;;;;;;7.83;7.13;;;23.40;99.90;;;;;;5098919;28;20514;-82
2022/08/21 10:55:56;;;;;;;8.23;7.50;;;24.10;99.90;;;;;;5109847;28;20407;-83
2022/08/21 10:58:46;;;;;;;6.63;5.93;;;23.90;99.90;;;;;;5103492;28;20448;-82
2022/08/21 11:01:45;;;;;;;7.30;6.60;;;23.70;99.90;;;;;;5103213;28;20880;-83
2022/08/21 11:04:36;;;;;;;8.07;7.33;;;24.10;99.90;;;;;;5103325;28;20392;-83
2022/08/21 11:07:43;;;;;;;7.03;6.00;;;23.60;99.90;;;;;;5089092;28;20411;-81
2022/08/21 11:10:36;;;;;;;6.40;5.80;;;23.90;99.90;;;;;;5104661;28;20458;-82
2022/08/21 11:13:39;;;;;;;6.47;5.97;;;24.20;99.90;;;;;;5076458;28;20930;-83
2022/08/21 11:16:42;;;;;;;6.87;6.27;;;24.30;99.90;;;;;;5105117;28;20414;-82
2022/08/21 11:19:42;;;;;;;5.97;5.47;;;24.50;99.90;;;;;;5090788;28;20527;-81
2022/08/21 11:22:38;;;;;;;6.30;5.70;;;24.60;99.90;;;;;;5105153;28;20391;-82
2022/08/21 11:25:37;;;;;;;7.47;6.80;;;25.10;99.90;;;;;;5077826;28;20527;-83
2022/08/21 11:28:30;;;;;;;5.37;4.97;;;25.50;99.90;;;;;;5090607;28;20395;-83
2022/08/21 11:31:45;;;;;;;6.63;6.13;;;26.70;99.90;;;;;;5091227;28;20454;-82
2022/08/21 11:34:47;;;;;;;5.40;4.60;;;26.40;99.90;;;;;;5093709;28;20426;-81
2022/08/21 11:37:59;;;;;;;5.70;5.20;;;26.00;99.90;;;;;;5106566;28;20378;-81
2022/08/21 11:41:11;;;;;;;5.57;5.07;;;26.00;99.90;;;;;;5090659;28;20522;-81
2022/08/21 11:44:28;;;;;;;5.77;5.27;;;26.20;99.90;;;;;;5111102;28;20584;-83
2022/08/21 11:47:40;;;;;;;5.33;4.93;;;27.90;99.90;;;;;;5126497;28;20154;-82
2022/08/21 11:50:28;;;;;;;4.95;4.55;;;29.00;99.90;;;;;;5126991;28;20552;-82
2022/08/21 11:53:27;;;;;;;5.18;4.75;;;28.00;99.90;;;;;;5126703;28;20162;-83
2022/08/21 11:56:18;;;;;;;4.15;3.85;;;30.30;95.50;;;;;;5112114;28;20238;-83
2022/08/21 11:59:11;;;;;;;4.32;3.92;;;31.20;83.10;;;;;;5127679;28;20230;-81
2022/08/21 12:01:57;;;;;;;3.88;3.58;;;31.70;74.20;;;;;;5111084;28;20168;-83
2022/08/21 12:04:49;;;;;;;4.85;4.55;;;30.50;72.50;;;;;;5125974;28;20209;-81
2022/08/21 12:07:39;;;;;;;4.60;4.22;;;29.10;76.20;;;;;;5125725;28;20633;-84
2022/08/21 12:10:34;;;;;;;4.28;3.97;;;30.00;75.80;;;;;;5126340;28;20239;-83
2022/08/21 12:13:25;;;;;;;4.55;4.13;;;31.40;72.60;;;;;;5125191;28;20161;-83
2022/08/21 12:16:14;;;;;;;4.20;3.90;;;31.50;73.00;;;;;;5126733;28;20233;-82
2022/08/21 12:19:13;;;;;;;5.72;3.70;;;31.50;72.00;;;;;;5111850;28;20599;-84
2022/08/21 12:22:09;;;;;;;4.47;4.15;;;30.90;68.10;;;;;;5110525;28;20176;-81
2022/08/21 12:25:06;;;;;;;4.20;3.90;;;30.90;71.80;;;;;;5108623;28;20168;-81
2022/08/21 12:28:07;;;;;;;3.85;3.55;;;31.50;69.80;;;;;;5125164;28;20683;-81
2022/08/21 12:31:23;;;;;;;4.50;4.10;;;31.70;67.00;;;;;;5086647;28;20270;-81
2022/08/21 12:34:15;;;;;;;6.93;6.07;;;30.60;71.40;;;;;;5026698;28;20223;-81
2022/08/21 12:37:14;;;;;;;4.00;3.70;;;30.00;69.80;;;;;;4989598;28;20192;-79
2022/08/21 12:40:02;;;;;;;5.00;3.95;;;31.10;74.10;;;;;;5000676;28;20184;-80
2022/08/21 12:42:50;;;;;;;4.40;4.10;;;31.50;65.20;;;;;;4989485;28;20355;-82
2022/08/21 12:45:43;;;;;;;4.55;3.97;;;30.60;72.70;;;;;;5003994;28;20240;-81
2022/08/21 12:48:50;;;;;;;4.00;3.70;;;31.90;70.90;;;;;;4989154;28;20229;-81
2022/08/21 12:51:50;;;;;;;3.95;3.45;;;32.70;65.90;;;;;;5002503;28;20732;-80
2022/08/21 12:54:43;;;;;;;6.47;4.65;;;31.50;66.90;;;;;;5001888;28;20232;-81
2022/08/21 12:57:29;;;;;;;4.68;4.28;;;30.20;70.10;;;;;;5002008;28;20223;-81
2022/08/21 13:00:22;;;;;;;5.13;4.75;;;30.10;69.50;;;;;;5001973;28;20169;-81
2022/08/21 13:03:06;;;;;;;3.70;3.50;;;30.20;70.60;;;;;;4994901;28;20183;-81
2022/08/21 13:05:53;;;;;;;4.55;4.15;;;31.30;69.00;;;;;;5023700;28;20179;-80
2022/08/21 13:08:37;;;;;;;3.92;3.63;;;31.70;65.10;;;;;;5010514;28;20190;-80
2022/08/21 13:11:23;;;;;;;4.07;3.78;;;32.30;67.20;;;;;;5023889;28;20346;-79
2022/08/21 13:14:27;;;;;;;3.65;3.38;;;32.30;61.40;;;;;;5002260;28;20210;-79
2022/08/21 13:17:12;;;;;;;4.10;3.80;;;33.50;62.10;;;;;;5049512;28;20231;-79
2022/08/21 13:20:00;;;;;;;4.20;3.72;;;34.00;61.40;;;;;;5089157;28;20160;-81
2022/08/21 13:22:47;;;;;;;3.63;3.20;;;34.30;59.00;;;;;;5105907;28;20197;-81
2022/08/21 13:25:36;;;;;;;3.70;3.47;;;33.50;57.00;;;;;;5090303;28;20241;-82
2022/08/21 13:28:21;;;;;;;4.07;3.78;;;33.30;57.70;;;;;;5104817;28;20173;-81
2022/08/21 13:31:10;;;;;;;3.45;3.25;;;31.20;59.50;;;;;;5104985;28;20208;-80
2022/08/21 13:33:55;;;;;;;3.17;2.90;;;32.20;61.80;;;;;;5103905;28;20188;-79
2022/08/21 13:36:41;;;;;;;5.63;3.60;;;33.50;58.70;;;;;;5104595;28;20172;-83
2022/08/21 13:39:26;;;;;;;4.47;3.67;;;33.70;59.40;;;;;;5105347;28;20173;-81
2022/08/21 13:42:12;;;;;;;4.00;3.70;;;33.50;58.20;;;;;;5105558;28;20193;-81
2022/08/21 13:44:57;;;;;;;4.90;3.95;;;33.70;56.80;;;;;;5116422;28;20254;-79
2022/08/21 13:47:43;;;;;;;3.25;3.05;;;33.70;57.50;;;;;;5126749;28;20539;-82
2022/08/21 13:50:27;;;;;;;3.72;3.00;;;34.30;56.90;;;;;;5125282;28;20202;-82
2022/08/21 13:53:27;;;;;;;3.58;3.38;;;33.10;57.10;;;;;;5124955;28;20520;-80
2022/08/21 13:56:34;;;;;;;3.42;3.22;;;31.00;58.30;;;;;;5109235;28;20224;-82
2022/08/21 13:59:31;;;;;;;4.07;3.78;;;31.40;59.90;;;;;;5125481;28;20186;-80
2022/08/21 14:02:22;;;;;;;4.15;3.85;;;31.40;59.20;;;;;;5110158;28;20544;-77
2022/08/21 14:05:15;;;;;;;3.70;3.50;;;31.10;62.00;;;;;;5126551;28;20196;-77
2022/08/21 14:08:29;;;;;;;3.47;3.28;;;30.90;60.00;;;;;;5125449;28;20156;-81
2022/08/21 14:11:15;;;;;;;3.63;3.33;;;30.70;59.10;;;;;;5097793;28;20160;-79
2022/08/21 14:14:08;;;;;;;4.15;3.40;;;30.80;61.40;;;;;;5126346;28;20231;-81
2022/08/21 14:16:59;;;;;;;3.67;3.38;;;31.50;58.60;;;;;;5125899;28;20288;-80
2022/08/21 14:19:47;;;;;;;3.17;2.97;;;31.90;56.20;;;;;;5105461;28;20238;-80
2022/08/21 14:22:45;;;;;;;3.55;3.25;;;32.20;56.70;;;;;;5089267;28;20649;-81
2022/08/21 14:25:39;;;;;;;4.57;4.25;;;32.00;57.80;;;;;;5087469;28;20249;-81
2022/08/21 14:28:46;;;;;;;3.28;3.08;;;31.70;56.80;;;;;;5100711;28;20173;-79
2022/08/21 14:31:34;;;;;;;3.38;3.17;;;31.70;55.70;;;;;;5061292;28;20185;-81
2022/08/21 14:34:27;;;;;;;3.75;3.45;;;31.40;60.80;;;;;;5045811;28;20209;-81
2022/08/21 14:37:13;;;;;;;3.45;3.15;;;31.60;57.30;;;;;;5032643;28;20247;-79
2022/08/21 14:39:58;;;;;;;3.20;3.00;;;30.80;57.90;;;;;;5065041;28;20182;-81
2022/08/21 14:42:44;;;;;;;5.30;3.08;;;30.30;58.50;;;;;;4999293;28;20215;-81